Home > Products > Valid Products > TAF

000
FTUS46 KMFR 162300
TAFLMT
TAF
KLMT 162326Z 1700/1724 18011G18KT P6SM SCT120 BKN200
     FM170400 17004KT P6SM BKN120 OVC200
     FM172000 19015G22KT P6SM BKN080 OVC150=



000
FTUS46 KMFR 162300
TAFOTH
TAF
KOTH 162326Z 1700/1724 26009KT P6SM SCT150 OVC200
     FM170300 VRB03KT P6SM FEW080 OVC150
     FM172000 30009KT P6SM SCT090 OVC120=



000
FTUS46 KMFR 162300
TAFMFR
TAF
KMFR 162326Z 1700/1724 31010KT P6SM SCT150 BKN200
     FM170500 VRB03KT P6SM BKN150 OVC200
     FM172100 31008KT P6SM BKN100 OVC150=



000
FTUS46 KMFR 162300
TAFRBG
TAF
KRBG 162326Z 1700/1724 35007KT P6SM SCT150 BKN200
     FM170400 00000KT P6SM BKN150 OVC200
     FM172200 35005KT P6SM SCT090 OVC120=



000
FTUS46 KMFR 161700 CCA
TAFLMT
TAF AMD
KLMT 161747Z 1618/1718 17011KT P6SM SKC
     FM162100 21011G18KT P6SM SCT100 SCT140 BKN250
     FM170400 17007KT P6SM BKN150 BKN200=



000
FTUS46 KMFR 161700 RRA
TAFOTH
TAF
KOTH 161743Z 1618/1718 23006KT P6SM FEW030 SCT250
     FM162100 26009KT P6SM FEW015 SCT025 BKN140
     FM170200 VRB04KT P6SM SCT080 BKN120 OVC140
     FM170600 17007KT P6SM SCT120 OVC140=



000
FTUS46 KMFR 161700 RRA
TAFMFR
TAF
KMFR 161743Z 1618/1718 VRB03KT P6SM FEW140
     FM162200 32009KT P6SM FEW120 BKN250
     FM170500 VRB03KT P6SM SCT150 OVC200
     FM171500 14005KT P6SM BKN200=



000
FTUS46 KMFR 161700 RRA
TAFLMT
TAF
KLMT 161743Z 1618/1718 17007KT P6SM SKC
     FM162100 21009G14KT P6SM SCT100 BKN200
     FM170400 VRB03KT P6SM SCT100 BKN200=



000
FTUS46 KMFR 161700 RRA
TAFRBG
TAF
KRBG 161743Z 1618/1718 VRB03KT P6SM SCT250
     FM162200 35007KT P6SM FEW040 SCT140 BKN200
     FM170600 00000KT P6SM BKN160 OVC200=



000
FTUS46 KMFR 161100
TAFMFR
TAF
KMFR 161120Z 1612/1712 VRB03KT P6SM SKC
     FM162300 32008KT P6SM SCT100 BKN250
     FM170300 VRB03KT P6SM BKN100 BKN250=



000
FTUS46 KMFR 161100
TAFRBG
TAF
KRBG 161120Z 1612/1712 VRB03KT P6SM SKC
     FM162200 36008KT P6SM SCT080 BKN250
     FM170400 VRB03KT P6SM OVC080=



000
FTUS46 KMFR 161100
TAFOTH
TAF
KOTH 161120Z 1612/1712 14005KT P6SM SCT005 SCT250
     FM161500 VRB03KT P6SM SCT005 BKN250
     FM161900 25008KT P6SM SCT080 BKN250
     FM170200 VRB03KT P6SM SCT040 OVC080=



000
FTUS46 KMFR 161100
TAFLMT
TAF
KLMT 161120Z 1612/1712 17007KT P6SM SKC
     FM162100 21009G14KT P6SM SCT100 BKN200
     FM170400 VRB03KT P6SM SCT100 BKN200=



000
FTUS46 KMFR 160500 RRA
TAFLMT
TAF
KLMT 160541Z 1606/1706 17007KT P6SM SCT200
     FM162200 21009G14KT P6SM SCT100 BKN200
     FM170400 VRB03KT P6SM BKN200=



000
FTUS46 KMFR 160500 RRA
TAFRBG
TAF
KRBG 160541Z 1606/1706 33007KT P6SM FEW110 SCT250
     FM161000 VRB03KT P6SM FEW020 SCT030 SCT250
     FM162200 01006KT P6SM SKC
     FM170400 VRB03KT P6SM SKC=



000
FTUS46 KMFR 160500 RRA
TAFMFR
TAF
KMFR 160541Z 1606/1706 VRB03KT P6SM SCT300
     FM162100 31008KT P6SM BKN200
     FM170400 VRB03KT P6SM BKN200=



000
FTUS46 KMFR 160500 RRA
TAFOTH
TAF
KOTH 160541Z 1606/1706 19005KT P6SM BKN020
      TEMPO 1606/1610 SCT020
     FM161200 17003KT 2SM BR BKN002 OVC004
     FM161700 VRB04KT 6SM BR BKN008 OVC016
     FM161900 21010KT P6SM BKN020
     FM162000 19010KT P6SM SCT015=



000
FTUS46 KMFR 160200 AAA
TAFOTH
TAF AMD
KOTH 160228Z 1602/1624 25008KT P6SM OVC012
     FM160500 19005KT P6SM BKN008 BKN080
     FM161200 17003KT 2SM BR BKN002 OVC004
     FM161700 VRB04KT 6SM BR BKN008 OVC016
     FM161900 27010KT P6SM BKN012
     FM162000 27010KT P6SM SCT015=



000
FTUS46 KMFR 160200 AAA
TAFLMT
TAF AMD
KLMT 160218Z 1602/1624 18014KT P6SM SCT110 BKN200
     FM160400 17007KT P6SM SCT200
     FM162200 21009G14KT P6SM SCT100 BKN200=



000
FTUS46 KMFR 160200 AAA
TAFRBG
TAF AMD
KRBG 160218Z 1602/1624 34010KT P6SM FEW120 BKN200
     FM160300 33007KT P6SM FEW110 SCT250
     FM161000 VRB03KT P6SM FEW020 SCT030 SCT250=



000
FTUS46 KMFR 152300
TAFOTH
TAF
KOTH 152340Z 1600/1624 25008KT P6SM BKN010 OVC012
     FM160500 19005KT P6SM BKN008 BKN080
     FM161200 17003KT 2SM BR BKN002 OVC004
     FM161700 VRB04KT 6SM BR BKN008 OVC016
     FM161900 27010KT P6SM BKN012=



000
FTUS46 KMFR 152300
TAFLMT
TAF
KLMT 152340Z 1600/1624 20018G26KT P6SM SCT110 BKN200
     FM160400 17007KT P6SM SCT200
     FM162200 21009G14KT P6SM SCT100 BKN200=



000
FTUS46 KMFR 152300
TAFRBG
TAF
KRBG 152340Z 1600/1624 36010KT P6SM FEW120 BKN200
     FM160200 33007KT P6SM FEW110 SCT250
     FM161000 VRB03KT P6SM FEW020 SCT030 SCT250=



000
FTUS46 KMFR 152300
TAFMFR
TAF
KMFR 152340Z 1600/1624 30009KT P6SM SCT140
     FM160400 VRB03KT P6SM SCT300
     FM162100 31006KT P6SM BKN200=



000
FTUS46 KMFR 152100 AAB
TAFLMT
TAF AMD
KLMT 152112Z 1521/1618 20018G26KT P6SM SCT110 BKN200
     FM160400 17007KT P6SM SCT200=



000
FTUS46 KMFR 151900 AAB
TAFOTH
TAF AMD
KOTH 151945Z 1520/1618 25008KT P6SM BKN010 OVC012
     FM160200 17006KT P6SM BKN008 BKN080
     FM160600 18005KT 5SM BR OVC006
     FM161200 17003KT 2SM BR BKN002 OVC004
     FM161700 VRB04KT 6SM BR BKN008 OVC016=



000
FTUS46 KMFR 151800 AAA
TAFRBG
TAF AMD
KRBG 151836Z 1519/1618 00000KT P6SM BKN250
     FM152100 30003KT P6SM FEW120 BKN200
     FM160200 33007KT P6SM FEW110 SCT250
     FM161000 VRB03KT P6SM FEW020 SCT030 SCT250=



000
FTUS46 KMFR 151800 AAA
TAFMFR
TAF AMD
KMFR 151826Z 1518/1618 00000KT P6SM BKN250
     FM152100 29005KT P6SM FEW110 BKN200
     FM160000 30009KT P6SM SCT140
     FM160400 VRB03KT P6SM SCT300=



000
FTUS46 KMFR 151700 AAA
TAFOTH
TAF AMD
KOTH 151756Z 1518/1618 VRB03KT 6SM BR BKN006 OVC009
     FM152000 25008KT P6SM BKN009 OVC012
     FM160000 27009KT P6SM BKN012
     FM160200 17006KT P6SM BKN008 BKN080
     FM160600 18005KT 5SM BR OVC006
     FM161200 17003KT 2SM BR BKN002 OVC004
     FM161700 VRB04KT 6SM BR BKN008 OVC016=



000
FTUS46 KMFR 151700 AAA
TAFLMT
TAF AMD
KLMT 151752Z 1518/1618 VRB04KT P6SM FEW110 BKN250
     FM152100 17011G18KT P6SM SCT110 BKN200
     FM160000 20012G22KT P6SM FEW110 BKN200
     FM160400 17007KT P6SM SCT200=



000
FTUS46 KMFR 151700 RRA
TAFMFR
TAF
KMFR 151744Z 1518/1618 VRB04KT P6SM BKN250
     FM152200 33008KT P6SM FEW080 BKN250
     FM160400 VRB03KT P6SM SCT080=



000
FTUS46 KMFR 151700 RRA
TAFRBG
TAF
KRBG 151744Z 1518/1618 00000KT P6SM SCT250
     FM152200 35006KT P6SM VCTS SCT080CB OVC250
     FM160400 35003KT P6SM BKN080 BKN200
     FM161000 VRB02KT P6SM FEW020 SCT200=



000
FTUS46 KMFR 151700 RRA
TAFLMT
TAF
KLMT 151744Z 1518/1618 31008KT P6SM BKN200
     FM151900 18010G15KT P6SM FEW060 SCT200
     FM152200 18013G18KT P6SM FEW060 BKN200
     FM160400 18008G14KT P6SM SCT060 BKN200=



000
FTUS46 KMFR 151700 RRA
TAFOTH
TAF
KOTH 151744Z 1518/1618 VRB03KT 6SM BR BKN006 OVC009
     FM152000 25008KT P6SM BKN009 OVC012
     FM160000 27009KT P6SM BKN012
     FM160200 17006KT P6SM BKN008 BKN080
     FM160600 18005KT 5SM BR OVC006=



000
FTUS46 KMFR 151600 AAA
TAFOTH
TAF AMD
KOTH 151626Z 1516/1612 VRB03KT 3SM BR OVC003
     FM151700 22004KT 5SM BR OVC006
     FM151900 25006KT P6SM SCT012 SCT080 BKN250
     FM152200 25009G18KT P6SM FEW012 SCT080 BKN250
     FM160000 25009G18KT P6SM BKN012
     FM160200 18008G16KT P6SM BKN008 BKN080
     FM160600 18005KT 5SM BR OVC006=



000
FTUS46 KMFR 151100 CCA
TAFRBG
TAF COR
KRBG 151142Z 1512/1612 00000KT P6SM FEW250
     FM152200 35006KT P6SM VCTS SCT080CB OVC250
     FM160400 35003KT P6SM BKN080 BKN200
     FM161000 VRB02KT P6SM FEW020 SCT200=



000
FTUS46 KMFR 151100
TAFMFR
TAF
KMFR 151140Z 1512/1612 VRB04KT P6SM SKC
     FM152200 33008KT P6SM VCTS SCT080CB BKN250
     FM160400 VRB03KT P6SM SCT080=



000
FTUS46 KMFR 151100
TAFLMT
TAF
KLMT 151140Z 1512/1612 31008KT P6SM FEW200
     FM151900 18010G15KT P6SM FEW060 SCT200
     FM152200 18013G18KT P6SM VCTS SCT060CB BKN200
     FM160400 18008G14KT P6SM SCT060 BKN200=



000
FTUS46 KMFR 151100
TAFOTH
TAF
KOTH 151140Z 1512/1612 VRB03KT 1/2SM FG OVC002
     FM151700 22004KT 3SM BR OVC006
     FM151900 25006KT P6SM SCT012 SCT080 BKN250
     FM152200 25009G18KT P6SM FEW012 SCT080 BKN250
     FM160000 25009G18KT P6SM BKN012
     FM160200 18008G16KT P6SM BKN008 BKN080
     FM160600 18005KT 5SM BR OVC006=



000
FTUS46 KMFR 151100
TAFRBG
TAF
KRBG 151140Z 1512/1612 VRB03KT P6SM SCT250
     FM152200 35006KT P6SM VCTS SCT080CB OVC250
     FM160400 VRB03KT P6SM SCT080=



000
FTUS46 KMFR 150500 RRA
TAFOTH
TAF
KOTH 150542Z 1506/1606 29003KT 1/2SM FG OVC002
     FM151900 21003KT P6SM SCT012 BKN080 BKN250
     FM152200 21010G20KT P6SM SCT080 BKN250
     FM160200 18008G16KT P6SM BKN008 BKN080=



000
FTUS46 KMFR 150500 RRA
TAFLMT
TAF
KLMT 150542Z 1506/1606 31008KT P6SM SCT200
     FM151900 18010G15KT P6SM SCT060 BKN200
     FM152200 18010G16KT P6SM VCTS SCT060CB BKN200
     FM160400 18008G14KT P6SM SCT060 BKN200=



000
FTUS46 KMFR 150500 RRA
TAFRBG
TAF
KRBG 150542Z 1506/1606 VRB03KT P6SM SCT250
     FM152200 35005KT P6SM VCTS SCT080CB OVC250
     FM160400 VRB03KT P6SM SCT020 BKN080=



000
FTUS46 KMFR 150500 RRA
TAFMFR
TAF
KMFR 150542Z 1506/1606 VRB04KT P6SM SKC
     FM152200 33008KT P6SM VCTS SCT080CB BKN250
     FM160400 VRB03KT P6SM SCT080=



000
FTUS46 KMFR 150400 AAB
TAFOTH
TAF AMD
KOTH 150408Z 1504/1524 29003KT 1/2SM FG OVC002
     FM151600 16003KT P6SM FEW100 BKN250
     FM151900 27009KT P6SM SCT100 BKN250=



000
FTUS46 KMFR 150200 AAA
TAFOTH
TAF AMD
KOTH 150248Z 1503/1524 29005KT 4SM BR BKN002
      TEMPO 1503/1505 1SM BR SCT002
     FM151000 16003KT 1SM BR OVC002
     FM151600 16003KT P6SM FEW100 BKN250
     FM151900 27009KT P6SM SCT100 BKN250=



000
FTUS46 KMFR 142300
TAFOTH
TAF
KOTH 142339Z 1500/1524 31010KT P6SM SKC
     FM150500 16003KT P6SM SCT250
     FM151000 16003KT 5SM BR BKN006
     FM151600 16003KT P6SM FEW100 BKN250
     FM151900 27009KT P6SM SCT100 BKN250=



000
FTUS46 KMFR 142300
TAFRBG
TAF
KRBG 142339Z 1500/1524 36008KT P6SM SKC
     FM150400 VRB03KT P6SM SCT250
     FM152200 35005KT P6SM SCT080 OVC250=



000
FTUS46 KMFR 142300
TAFLMT
TAF
KLMT 142339Z 1500/1524 32006KT P6SM SKC
     FM150200 31008KT P6SM SCT200
     FM151900 18010G15KT P6SM SCT080 BKN200=



000
FTUS46 KMFR 142300
TAFMFR
TAF
KMFR 142339Z 1500/1524 VRB04KT P6SM SKC
     FM152100 33008KT P6SM SCT080 BKN250=



000
FTUS46 KMFR 141700
TAFOTH
TAF
KOTH 141721Z 1418/1518 11003KT P6SM SKC
     FM142000 31010KT P6SM SKC
     FM150500 16003KT P6SM SCT250
     FM151000 16003KT 5SM BR BKN006
     FM151600 16003KT P6SM FEW100 BKN250=



000
FTUS46 KMFR 141700
TAFLMT
TAF
KLMT 141721Z 1418/1518 VRB03KT P6SM SKC
     FM142100 24007KT P6SM SKC
     FM150200 31008KT P6SM SCT200
     FM150500 VRB03KT P6SM SCT200=



000
FTUS46 KMFR 141700
TAFMFR
TAF
KMFR 141721Z 1418/1518 VRB03KT P6SM SKC
     FM142200 30007KT P6SM SKC
     FM150400 VRB03KT P6SM SCT250=



000
FTUS46 KMFR 141700
TAFRBG
TAF
KRBG 141721Z 1418/1518 VRB03KT P6SM SKC
     FM142200 36008KT P6SM SKC
     FM150400 VRB03KT P6SM SCT250=



000
FTUS46 KMFR 141100 CCA
TAFOTH
TAF COR
KOTH 141141Z 1412/1512 15003KT P6SM SKC
     FM142000 31006KT P6SM SKC
     FM150500 16003KT P6SM FEW006=



000
FTUS46 KMFR 141100
TAFOTH
TAF
KOTH 141140Z 1412/1512 15003KT P6SM SKC
     FM142000 31006KT P6SM SCT015
     FM150500 16003KT P6SM FEW015=



000
FTUS46 KMFR 141100
TAFLMT
TAF
KLMT 141140Z 1412/1512 VRB03KT P6SM SKC
     FM142100 24007KT P6SM SKC=



000
FTUS46 KMFR 141100
TAFMFR
TAF
KMFR 141140Z 1412/1512 VRB03KT P6SM SCT250
     FM142200 30007KT P6SM SKC
     FM150400 VRB03KT P6SM SKC=



000
FTUS46 KMFR 141100
TAFRBG
TAF
KRBG 141140Z 1412/1512 VRB03KT P6SM SKC
     FM142200 36006KT P6SM SKC
     FM150400 VRB03KT P6SM SKC=



000
FTUS46 KMFR 140500
TAFLMT
TAF
KLMT 140534Z 1406/1506 VRB03KT P6SM SKC=



000
FTUS46 KMFR 140500
TAFMFR
TAF
KMFR 140534Z 1406/1506 VRB03KT P6SM SCT250
     FM142200 30007KT P6SM SKC
     FM150400 VRB03KT P6SM SKC=



000
FTUS46 KMFR 140500
TAFRBG
TAF
KRBG 140534Z 1406/1506 VRB03KT P6SM SKC
     FM142200 36006KT P6SM SKC
     FM150400 VRB03KT P6SM SKC=



000
FTUS46 KMFR 140500
TAFOTH
TAF
KOTH 140534Z 1406/1506 15003KT P6SM SKC
     FM142000 31006KT P6SM SCT015=



000
FTUS46 KMFR 132300
TAFOTH
TAF
KOTH 132338Z 1400/1424 27007KT P6SM SKC
     FM140400 15003KT P6SM SKC
     FM141000 15003KT 1SM BR OVC005
     FM141700 VRB04KT 5SM BR OVC010
     FM142000 28010KT P6SM SCT010=



000
FTUS46 KMFR 132300
TAFRBG
TAF
KRBG 132338Z 1400/1424 36009KT P6SM SKC
     FM140400 VRB03KT P6SM SKC=



000
FTUS46 KMFR 132300
TAFLMT
TAF
KLMT 132338Z 1400/1424 27006KT P6SM BKN200
     FM140400 VRB03KT P6SM SKC=



000
FTUS46 KMFR 132300
TAFMFR
TAF
KMFR 132338Z 1400/1424 33006KT P6SM BKN250
     FM140400 VRB03KT P6SM SCT250=



    US Dept of Commerce
    National Oceanic and Atmospheric Administration
    National Weather Service
    1325 East West Highway
    Silver Spring, MD 20910
    Page Author: NWS Internet Services Team
Disclaimer
Information Quality
Credits
Glossary
Privacy Policy
Freedom of Information Act (FOIA)
About Us
Career Opportunities